Time;durP1;ratioP1;P1;durP2;ratioP2;P2;SDS_P1;SDS_P2;PMS_P1;PMS_P2;Temp;Humidity;BMP_temperature;BMP_pressure;BME280_temperature;BME280_humidity;BME280_pressure;Samples;Min_cycle;Max_cycle;Signal;HPM_P1;HPM_P2
2021/11/10 00:00:37;;;;;;;2.65;1.90;;;;;;;;;;2051305;28;20042;-85
2021/11/10 00:01:56;;;;;;;3.90;2.35;;;;;;;;;;2046135;28;20114;-85
2021/11/10 00:03:15;;;;;;;2.35;2.15;;;;;;;;;;2046420;28;20035;-85
2021/11/10 00:04:34;;;;;;;3.08;2.35;;;;;;;;;;2044481;28;20027;-85
2021/11/10 00:05:53;;;;;;;3.63;2.72;;;;;;;;;;2046304;28;20434;-85
2021/11/10 00:07:12;;;;;;;2.30;2.10;;;;;;;;;;2046021;28;20418;-84
2021/11/10 00:08:31;;;;;;;2.28;2.17;;;;;;;;;;2049441;28;20481;-84
2021/11/10 00:09:50;;;;;;;2.45;2.25;;;;;;;;;;2047628;29;20526;-85
2021/11/10 00:11:09;;;;;;;2.72;2.53;;;;;;;;;;2045461;28;20047;-85
2021/11/10 00:12:27;;;;;;;3.40;2.63;;;;;;;;;;2042250;28;20585;-85
2021/11/10 00:13:46;;;;;;;2.60;2.40;;;;;;;;;;2045926;28;20027;-84
2021/11/10 00:15:06;;;;;;;2.80;2.38;;;;;;;;;;2046367;28;20115;-85
2021/11/10 00:16:25;;;;;;;2.50;2.30;;;;;;;;;;2047969;28;20451;-85
2021/11/10 00:17:44;;;;;;;1.65;1.55;;;;;;;;;;2042665;28;20028;-85
2021/11/10 00:19:04;;;;;;;3.20;2.00;;;;;;;;;;2044757;28;20036;-84
2021/11/10 00:20:22;;;;;;;1.80;1.70;;;;;;;;;;2047603;28;20027;-84
2021/11/10 00:21:41;;;;;;;1.83;1.73;;;;;;;;;;2045698;28;20043;-85
2021/11/10 00:23:00;;;;;;;2.13;1.92;;;;;;;;;;2046553;28;20058;-85
2021/11/10 00:24:19;;;;;;;2.60;2.17;;;;;;;;;;2043669;28;20126;-84
2021/11/10 00:25:38;;;;;;;2.15;1.95;;;;;;;;;;2047472;28;20614;-84
2021/11/10 00:26:56;;;;;;;2.35;2.20;;;;;;;;;;2047454;28;20020;-84
2021/11/10 00:28:16;;;;;;;2.22;2.00;;;;;;;;;;2045121;28;20028;-84
2021/11/10 00:29:35;;;;;;;1.92;1.83;;;;;;;;;;2045050;28;20691;-84
2021/11/10 00:30:53;;;;;;;2.03;1.92;;;;;;;;;;2042022;28;20032;-85
2021/11/10 00:32:12;;;;;;;2.03;1.90;;;;;;;;;;2048231;28;20271;-85
2021/11/10 00:33:31;;;;;;;3.92;2.40;;;;;;;;;;2048146;28;20035;-85
2021/11/10 00:34:50;;;;;;;2.13;2.03;;;;;;;;;;2044978;28;20058;-84
2021/11/10 00:36:09;;;;;;;2.38;2.20;;;;;;;;;;2049181;28;20031;-84
2021/11/10 00:37:28;;;;;;;1.75;1.65;;;;;;;;;;2045496;28;20027;-84
2021/11/10 00:38:47;;;;;;;2.35;2.03;;;;;;;;;;2046668;28;20474;-84
2021/11/10 00:40:07;;;;;;;2.10;2.00;;;;;;;;;;2049756;28;20467;-83
2021/11/10 00:41:26;;;;;;;2.25;2.13;;;;;;;;;;2047019;28;20039;-83
2021/11/10 00:42:45;;;;;;;2.42;2.25;;;;;;;;;;2047360;28;20028;-83
2021/11/10 00:44:04;;;;;;;2.33;2.13;;;;;;;;;;2046702;28;20476;-83
2021/11/10 00:45:23;;;;;;;3.35;1.85;;;;;;;;;;2041977;28;20035;-83
2021/11/10 00:46:42;;;;;;;2.00;1.90;;;;;;;;;;2048077;28;20072;-83
2021/11/10 00:48:00;;;;;;;2.38;2.28;;;;;;;;;;2044514;28;20072;-83
2021/11/10 00:49:19;;;;;;;2.70;2.50;;;;;;;;;;2044187;29;20118;-84
2021/11/10 00:50:39;;;;;;;2.00;1.90;;;;;;;;;;2043042;28;20031;-84
2021/11/10 00:51:58;;;;;;;3.00;2.10;;;;;;;;;;2046065;28;20023;-83
2021/11/10 00:53:16;;;;;;;2.00;1.85;;;;;;;;;;2046441;28;20427;-82
2021/11/10 00:54:35;;;;;;;1.80;1.70;;;;;;;;;;2051183;28;20027;-83
2021/11/10 00:55:54;;;;;;;2.20;1.92;;;;;;;;;;2046930;28;20455;-82
2021/11/10 00:57:14;;;;;;;2.15;2.03;;;;;;;;;;2049548;28;20043;-84
2021/11/10 00:58:33;;;;;;;2.30;2.10;;;;;;;;;;2048524;28;20044;-84
2021/11/10 00:59:52;;;;;;;2.80;2.05;;;;;;;;;;2047766;28;20496;-84
2021/11/10 01:01:11;;;;;;;2.13;2.03;;;;;;;;;;2046579;28;20082;-84
2021/11/10 01:02:30;;;;;;;2.83;1.88;;;;;;;;;;2049925;28;20071;-83
2021/11/10 01:03:48;;;;;;;2.28;2.08;;;;;;;;;;2046707;28;20028;-83
2021/11/10 01:05:07;;;;;;;2.58;2.30;;;;;;;;;;2047702;28;20091;-84
2021/11/10 01:06:27;;;;;;;2.40;2.20;;;;;;;;;;2044277;28;20062;-84
2021/11/10 01:07:46;;;;;;;2.42;2.13;;;;;;;;;;2047465;28;20066;-84
2021/11/10 01:09:05;;;;;;;2.55;2.10;;;;;;;;;;2045162;28;20118;-85
2021/11/10 01:10:25;;;;;;;2.80;1.85;;;;;;;;;;2042335;28;20031;-82
2021/11/10 01:11:48;;;;;;;2.90;1.95;;;;;;;;;;2043515;28;20031;-83
2021/11/10 01:13:06;;;;;;;1.95;1.85;;;;;;;;;;2044715;29;20039;-83
2021/11/10 01:14:25;;;;;;;1.90;1.70;;;;;;;;;;2044322;28;20036;-84
2021/11/10 01:15:45;;;;;;;1.83;1.50;;;;;;;;;;2046817;28;20071;-83
2021/11/10 01:17:04;;;;;;;2.03;1.92;;;;;;;;;;2044555;28;20039;-83
2021/11/10 01:18:23;;;;;;;3.00;2.30;;;;;;;;;;2044812;28;20047;-84
2021/11/10 01:19:42;;;;;;;2.28;2.17;;;;;;;;;;2043963;28;20037;-84
2021/11/10 01:21:00;;;;;;;1.95;1.83;;;;;;;;;;2044599;28;20035;-84
2021/11/10 01:22:19;;;;;;;2.08;1.98;;;;;;;;;;2046217;28;20035;-83
2021/11/10 01:23:38;;;;;;;1.90;1.80;;;;;;;;;;2053327;28;20055;-84
2021/11/10 01:24:57;;;;;;;1.70;1.60;;;;;;;;;;2047116;28;20028;-84
2021/11/10 01:26:16;;;;;;;2.20;2.00;;;;;;;;;;2048790;28;20027;-83
2021/11/10 01:27:36;;;;;;;2.10;1.90;;;;;;;;;;2052686;28;20035;-83
2021/11/10 01:28:55;;;;;;;2.08;1.85;;;;;;;;;;2047476;28;20032;-83
2021/11/10 01:30:14;;;;;;;1.27;1.27;;;;;;;;;;2048241;28;20149;-83
2021/11/10 01:31:33;;;;;;;1.85;1.75;;;;;;;;;;2047716;28;20035;-83
2021/11/10 01:32:52;;;;;;;2.20;1.60;;;;;;;;;;2045243;28;20039;-84
2021/11/10 01:34:11;;;;;;;1.50;1.40;;;;;;;;;;2049762;28;20031;-83
2021/11/10 01:35:30;;;;;;;2.58;1.50;;;;;;;;;;2039650;28;20039;-83
2021/11/10 01:36:49;;;;;;;1.30;1.20;;;;;;;;;;2049205;28;20094;-83
2021/11/10 01:38:08;;;;;;;1.45;1.35;;;;;;;;;;2048339;28;20476;-83
2021/11/10 01:39:27;;;;;;;1.42;1.42;;;;;;;;;;2044754;28;21227;-83
2021/11/10 01:40:45;;;;;;;1.60;1.50;;;;;;;;;;2045243;28;20027;-83
2021/11/10 01:42:05;;;;;;;1.17;1.17;;;;;;;;;;2046689;28;20032;-83
2021/11/10 01:43:24;;;;;;;1.27;1.17;;;;;;;;;;2046025;28;20415;-83
2021/11/10 01:44:42;;;;;;;1.45;1.35;;;;;;;;;;2048709;28;20039;-83
2021/11/10 01:46:01;;;;;;;1.30;1.20;;;;;;;;;;2054094;28;20454;-84
2021/11/10 01:47:20;;;;;;;1.00;1.00;;;;;;;;;;2044466;28;20058;-83
2021/11/10 01:48:39;;;;;;;1.10;1.10;;;;;;;;;;2049956;28;20063;-83
2021/11/10 01:49:57;;;;;;;1.10;0.98;;;;;;;;;;2046828;28;20024;-84
2021/11/10 01:51:16;;;;;;;1.08;1.02;;;;;;;;;;2046144;28;20035;-83
2021/11/10 01:52:36;;;;;;;1.50;1.40;;;;;;;;;;2047823;28;20684;-83
2021/11/10 01:53:55;;;;;;;1.08;1.08;;;;;;;;;;2046407;28;20034;-84
2021/11/10 01:55:14;;;;;;;1.50;1.40;;;;;;;;;;2042531;29;20028;-83
2021/11/10 01:56:33;;;;;;;1.17;1.10;;;;;;;;;;2053572;28;20122;-83
2021/11/10 01:57:52;;;;;;;1.10;1.00;;;;;;;;;;2044565;28;20039;-83
2021/11/10 01:59:26;;;;;;;1.15;1.10;;;;;;;;;;2045242;28;20043;-84
2021/11/10 02:00:45;;;;;;;1.25;1.15;;;;;;;;;;2046919;28;20032;-84
2021/11/10 02:02:05;;;;;;;1.17;1.17;;;;;;;;;;2055673;28;20510;-84
2021/11/10 02:03:24;;;;;;;1.10;1.08;;;;;;;;;;2044863;28;20047;-84
2021/11/10 02:04:43;;;;;;;0.90;0.90;;;;;;;;;;2052651;28;20027;-84
2021/11/10 02:06:03;;;;;;;1.58;1.35;;;;;;;;;;2047283;28;20475;-84
2021/11/10 02:07:23;;;;;;;0.93;0.93;;;;;;;;;;2045107;28;20027;-83
2021/11/10 02:08:42;;;;;;;1.02;0.90;;;;;;;;;;2044811;28;20031;-83
2021/11/10 02:10:00;;;;;;;1.30;1.20;;;;;;;;;;2045600;28;20027;-84
2021/11/10 02:11:19;;;;;;;1.00;1.00;;;;;;;;;;2046469;28;20039;-84
2021/11/10 02:12:39;;;;;;;1.10;1.10;;;;;;;;;;2046845;28;20039;-83
2021/11/10 02:13:59;;;;;;;1.20;1.10;;;;;;;;;;2046628;28;20028;-84
2021/11/10 02:15:18;;;;;;;1.13;1.13;;;;;;;;;;2048347;28;20035;-83
2021/11/10 02:16:38;;;;;;;0.98;0.98;;;;;;;;;;2046600;28;20032;-85
2021/11/10 02:17:58;;;;;;;0.93;0.93;;;;;;;;;;2046382;28;20086;-84
2021/11/10 02:19:17;;;;;;;1.27;1.17;;;;;;;;;;2044555;28;20031;-83
2021/11/10 02:20:36;;;;;;;1.40;1.30;;;;;;;;;;2045406;29;20031;-83
2021/11/10 02:21:57;;;;;;;1.20;1.10;;;;;;;;;;2047082;28;20111;-84
2021/11/10 02:23:18;;;;;;;1.20;1.20;;;;;;;;;;2049365;28;20038;-85
2021/11/10 02:24:37;;;;;;;1.23;1.05;;;;;;;;;;2046833;28;20039;-84
2021/11/10 02:26:00;;;;;;;1.50;1.38;;;;;;;;;;2048800;28;20023;-84
2021/11/10 02:27:21;;;;;;;1.35;1.17;;;;;;;;;;2048161;28;20503;-84
2021/11/10 02:28:40;;;;;;;0.98;0.90;;;;;;;;;;2044981;28;20035;-84
2021/11/10 02:30:00;;;;;;;1.10;1.10;;;;;;;;;;2047699;28;20032;-84
2021/11/10 02:31:18;;;;;;;1.50;1.40;;;;;;;;;;2045602;28;20039;-85
2021/11/10 02:32:37;;;;;;;1.02;1.02;;;;;;;;;;2045920;29;20071;-84
2021/11/10 02:33:59;;;;;;;1.42;1.33;;;;;;;;;;2051850;28;20035;-84
2021/11/10 02:35:19;;;;;;;1.20;1.05;;;;;;;;;;2048188;29;20023;-84
2021/11/10 02:36:37;;;;;;;1.05;1.05;;;;;;;;;;2046021;28;20511;-84
2021/11/10 02:37:59;;;;;;;1.20;1.08;;;;;;;;;;2051743;28;20034;-84
2021/11/10 02:39:20;;;;;;;1.00;1.00;;;;;;;;;;2049921;28;20023;-84
2021/11/10 02:40:39;;;;;;;0.93;0.90;;;;;;;;;;2050732;28;20483;-84
2021/11/10 02:41:58;;;;;;;1.10;1.10;;;;;;;;;;2049241;28;20027;-84
2021/11/10 02:43:17;;;;;;;1.38;1.27;;;;;;;;;;2044308;28;20027;-84
2021/11/10 02:44:36;;;;;;;1.30;1.20;;;;;;;;;;2054582;28;20036;-84
2021/11/10 02:45:55;;;;;;;1.52;1.10;;;;;;;;;;2045911;28;20039;-84
2021/11/10 02:47:14;;;;;;;0.90;0.90;;;;;;;;;;2045246;28;20024;-84
2021/11/10 02:48:33;;;;;;;2.08;1.20;;;;;;;;;;2045186;28;20125;-84
2021/11/10 02:49:52;;;;;;;2.25;1.00;;;;;;;;;;2050826;28;20039;-84
2021/11/10 02:51:11;;;;;;;1.48;0.90;;;;;;;;;;2049382;28;20035;-85
2021/11/10 02:52:30;;;;;;;0.75;0.75;;;;;;;;;;2048621;28;20039;-84
2021/11/10 02:53:49;;;;;;;0.82;0.82;;;;;;;;;;2052052;28;20118;-83
2021/11/10 02:55:08;;;;;;;0.85;0.85;;;;;;;;;;2047137;28;20043;-84
2021/11/10 02:56:27;;;;;;;1.10;1.10;;;;;;;;;;2042642;28;20039;-83
2021/11/10 02:57:46;;;;;;;1.27;1.17;;;;;;;;;;2046263;28;20032;-83
2021/11/10 02:59:05;;;;;;;1.10;1.10;;;;;;;;;;2048275;28;20075;-83
2021/11/10 03:00:24;;;;;;;1.55;1.05;;;;;;;;;;2047298;28;20020;-83
2021/11/10 03:01:43;;;;;;;1.85;0.90;;;;;;;;;;2046449;28;20027;-84
2021/11/10 03:03:02;;;;;;;0.88;0.88;;;;;;;;;;2046971;28;20052;-84
2021/11/10 03:04:22;;;;;;;1.20;1.10;;;;;;;;;;2044819;28;20063;-84
2021/11/10 03:05:45;;;;;;;0.80;0.80;;;;;;;;;;2042034;28;20059;-84
2021/11/10 03:07:04;;;;;;;0.90;0.90;;;;;;;;;;2045504;28;20062;-83
2021/11/10 03:08:24;;;;;;;1.38;1.27;;;;;;;;;;2047379;28;20032;-83
2021/11/10 03:09:43;;;;;;;1.60;1.20;;;;;;;;;;2043959;28;20478;-85
2021/11/10 03:11:02;;;;;;;0.90;0.90;;;;;;;;;;2046218;28;20031;-83
2021/11/10 03:12:21;;;;;;;1.00;1.00;;;;;;;;;;2053713;28;20886;-83
2021/11/10 03:13:41;;;;;;;3.45;1.10;;;;;;;;;;2043777;28;20039;-84
2021/11/10 03:15:00;;;;;;;1.20;1.10;;;;;;;;;;2057663;28;20053;-84
2021/11/10 03:16:19;;;;;;;1.30;1.02;;;;;;;;;;2047990;28;20508;-84
2021/11/10 03:17:38;;;;;;;1.35;1.25;;;;;;;;;;2041325;28;20454;-83
2021/11/10 03:18:57;;;;;;;1.30;1.20;;;;;;;;;;2046398;28;20418;-83
2021/11/10 03:20:16;;;;;;;1.50;1.33;;;;;;;;;;2046583;28;20431;-83
2021/11/10 03:21:35;;;;;;;2.42;1.15;;;;;;;;;;2041226;28;20082;-84
2021/11/10 03:22:54;;;;;;;1.67;1.30;;;;;;;;;;2046897;28;20027;-83
2021/11/10 03:24:13;;;;;;;1.95;1.38;;;;;;;;;;2052595;28;20110;-83
2021/11/10 03:25:33;;;;;;;1.40;1.27;;;;;;;;;;2048249;28;20465;-84
2021/11/10 03:26:52;;;;;;;2.55;1.55;;;;;;;;;;2052955;28;20035;-84
2021/11/10 03:28:11;;;;;;;1.50;1.40;;;;;;;;;;2046758;28;20024;-84
2021/11/10 03:29:32;;;;;;;1.92;1.30;;;;;;;;;;2048236;28;20035;-84
2021/11/10 03:30:52;;;;;;;1.63;1.30;;;;;;;;;;2044856;28;20032;-84
2021/11/10 03:32:11;;;;;;;1.67;1.38;;;;;;;;;;2047023;28;20058;-84
2021/11/10 03:33:30;;;;;;;2.15;1.08;;;;;;;;;;2045927;28;20040;-84
2021/11/10 03:34:50;;;;;;;2.00;1.40;;;;;;;;;;2051891;28;20029;-83
2021/11/10 03:36:09;;;;;;;1.33;1.23;;;;;;;;;;2050879;28;20024;-84
2021/11/10 03:37:27;;;;;;;1.92;1.30;;;;;;;;;;2044506;28;20427;-84
2021/11/10 03:38:46;;;;;;;1.38;1.27;;;;;;;;;;2046495;28;20031;-83
2021/11/10 03:40:06;;;;;;;1.60;1.50;;;;;;;;;;2047542;28;20472;-84
2021/11/10 03:41:25;;;;;;;1.73;1.63;;;;;;;;;;2044887;28;20027;-83
2021/11/10 03:42:44;;;;;;;1.50;1.40;;;;;;;;;;2044234;28;20027;-84
2021/11/10 03:44:03;;;;;;;2.25;1.35;;;;;;;;;;2046328;28;20345;-84
2021/11/10 03:45:22;;;;;;;3.10;1.77;;;;;;;;;;2048036;28;20032;-84
2021/11/10 03:46:42;;;;;;;2.05;1.42;;;;;;;;;;2046591;28;20047;-84
2021/11/10 03:48:02;;;;;;;1.35;1.30;;;;;;;;;;2047632;28;20047;-84
2021/11/10 03:49:23;;;;;;;1.58;1.48;;;;;;;;;;2052613;28;20020;-84
2021/11/10 03:50:42;;;;;;;1.42;1.30;;;;;;;;;;2046312;28;20110;-84
2021/11/10 03:52:01;;;;;;;3.15;1.50;;;;;;;;;;2044644;28;20023;-85
2021/11/10 03:53:19;;;;;;;1.70;1.40;;;;;;;;;;2045458;28;20023;-84
2021/11/10 03:54:40;;;;;;;1.50;1.40;;;;;;;;;;2047199;28;20039;-84
2021/11/10 03:55:59;;;;;;;2.42;1.60;;;;;;;;;;2052388;28;20023;-84
2021/11/10 03:57:18;;;;;;;1.70;1.60;;;;;;;;;;2054911;28;20029;-84
2021/11/10 03:58:37;;;;;;;1.25;1.15;;;;;;;;;;2045336;28;20031;-83
2021/11/10 03:59:56;;;;;;;1.70;1.60;;;;;;;;;;2040686;28;20503;-85
2021/11/10 04:01:15;;;;;;;1.55;1.45;;;;;;;;;;2045776;28;20031;-83
2021/11/10 04:02:34;;;;;;;3.72;1.58;;;;;;;;;;2040243;28;20031;-85
2021/11/10 04:03:53;;;;;;;1.88;1.50;;;;;;;;;;2048281;28;20025;-84
2021/11/10 04:05:11;;;;;;;2.00;1.67;;;;;;;;;;2053934;28;20453;-83
2021/11/10 04:06:31;;;;;;;2.30;2.00;;;;;;;;;;2048504;28;20102;-83
2021/11/10 04:07:50;;;;;;;2.22;2.03;;;;;;;;;;2052102;28;20495;-83
2021/11/10 04:09:08;;;;;;;3.85;2.25;;;;;;;;;;2043090;28;20082;-85
2021/11/10 04:10:27;;;;;;;2.22;1.98;;;;;;;;;;2047219;28;20047;-84
2021/11/10 04:11:46;;;;;;;2.58;1.88;;;;;;;;;;2047653;28;20043;-83
2021/11/10 04:13:06;;;;;;;3.22;1.73;;;;;;;;;;2043266;28;20411;-85
2021/11/10 04:14:24;;;;;;;2.10;1.90;;;;;;;;;;2048711;28;20128;-84
2021/11/10 04:15:44;;;;;;;2.00;1.85;;;;;;;;;;2041756;28;20027;-85
2021/11/10 04:17:05;;;;;;;1.80;1.70;;;;;;;;;;2053461;28;20459;-85
2021/11/10 04:18:27;;;;;;;2.55;1.85;;;;;;;;;;2042703;28;20043;-83
2021/11/10 04:19:46;;;;;;;1.63;1.52;;;;;;;;;;2047781;28;20102;-84
2021/11/10 04:21:05;;;;;;;3.53;2.10;;;;;;;;;;2046428;28;20486;-85
2021/11/10 04:22:24;;;;;;;2.05;1.70;;;;;;;;;;2057993;28;20035;-84
2021/11/10 04:23:43;;;;;;;1.80;1.70;;;;;;;;;;2053606;28;20059;-84
2021/11/10 04:25:02;;;;;;;2.83;1.75;;;;;;;;;;2047581;28;20031;-85
2021/11/10 04:26:23;;;;;;;1.90;1.80;;;;;;;;;;2043775;28;20047;-84
2021/11/10 04:27:42;;;;;;;2.47;1.70;;;;;;;;;;2048169;28;20031;-83
2021/11/10 04:29:01;;;;;;;2.22;1.70;;;;;;;;;;2047714;28;20153;-84
2021/11/10 04:30:20;;;;;;;1.60;1.50;;;;;;;;;;2045110;28;20059;-84
2021/11/10 04:31:39;;;;;;;2.70;1.60;;;;;;;;;;2041542;28;20043;-84
2021/11/10 04:32:57;;;;;;;2.00;1.90;;;;;;;;;;2044749;28;20027;-84
2021/11/10 04:34:16;;;;;;;1.92;1.83;;;;;;;;;;2046625;28;20046;-84
2021/11/10 04:35:38;;;;;;;2.42;1.80;;;;;;;;;;2041336;28;20037;-85
2021/11/10 04:36:57;;;;;;;3.72;1.88;;;;;;;;;;2042644;28;20107;-83
2021/11/10 04:38:16;;;;;;;1.80;1.70;;;;;;;;;;2046006;28;20035;-84
2021/11/10 04:39:35;;;;;;;2.28;1.55;;;;;;;;;;2049202;28;20031;-84
2021/11/10 04:40:54;;;;;;;1.70;1.60;;;;;;;;;;2042793;28;20495;-85
2021/11/10 04:42:14;;;;;;;1.90;1.50;;;;;;;;;;2042284;28;20043;-84
2021/11/10 04:43:33;;;;;;;1.70;1.60;;;;;;;;;;2044383;28;20031;-85
2021/11/10 04:44:57;;;;;;;1.58;1.48;;;;;;;;;;2042760;28;20110;-84
2021/11/10 04:46:28;;;;;;;1.50;1.40;;;;;;;;;;2046673;28;20036;-84
2021/11/10 04:47:47;;;;;;;1.80;1.40;;;;;;;;;;2048942;28;20031;-85
2021/11/10 04:49:06;;;;;;;1.48;1.23;;;;;;;;;;2047238;28;20395;-85
2021/11/10 04:50:25;;;;;;;2.70;1.30;;;;;;;;;;2046896;28;20480;-84
2021/11/10 04:51:44;;;;;;;2.17;1.30;;;;;;;;;;2046538;28;20074;-83
2021/11/10 04:53:07;;;;;;;2.05;1.27;;;;;;;;;;2046378;28;20028;-85
2021/11/10 04:54:32;;;;;;;1.90;1.30;;;;;;;;;;2052150;28;20031;-84
2021/11/10 04:55:51;;;;;;;3.10;1.40;;;;;;;;;;2043899;28;20135;-85
2021/11/10 04:57:10;;;;;;;2.10;1.20;;;;;;;;;;2048256;28;20035;-84
2021/11/10 04:58:29;;;;;;;1.63;1.50;;;;;;;;;;2049826;28;20027;-84
2021/11/10 04:59:48;;;;;;;1.70;1.48;;;;;;;;;;2045788;28;20027;-84
2021/11/10 05:01:26;;;;;;;1.27;1.17;;;;;;;;;;2052290;28;20031;-85
2021/11/10 05:02:45;;;;;;;1.92;1.50;;;;;;;;;;2051612;28;20027;-85
2021/11/10 05:04:07;;;;;;;1.48;1.35;;;;;;;;;;2044912;28;20418;-83
2021/11/10 05:05:26;;;;;;;1.88;1.25;;;;;;;;;;2044699;28;20082;-84
2021/11/10 05:06:45;;;;;;;1.58;0.80;;;;;;;;;;2052208;28;20043;-82
2021/11/10 05:08:04;;;;;;;1.60;0.82;;;;;;;;;;2046476;28;20039;-83
2021/11/10 05:09:23;;;;;;;1.48;1.17;;;;;;;;;;2043250;28;20047;-83
2021/11/10 05:10:42;;;;;;;3.33;0.90;;;;;;;;;;2046748;28;20027;-84
2021/11/10 05:12:01;;;;;;;1.13;0.90;;;;;;;;;;2051798;28;20044;-84
2021/11/10 05:13:20;;;;;;;0.80;0.80;;;;;;;;;;2050633;28;20029;-82
2021/11/10 05:14:40;;;;;;;1.25;0.82;;;;;;;;;;2046995;28;20407;-85
2021/11/10 05:15:59;;;;;;;0.70;0.70;;;;;;;;;;2045201;28;20532;-86
2021/11/10 05:17:18;;;;;;;1.83;0.80;;;;;;;;;;2042575;28;20375;-84
2021/11/10 05:18:38;;;;;;;3.05;0.70;;;;;;;;;;2051295;28;20036;-84
2021/11/10 05:19:56;;;;;;;0.77;0.60;;;;;;;;;;2046446;28;20035;-84
2021/11/10 05:21:15;;;;;;;0.68;0.55;;;;;;;;;;2047994;28;20023;-84
2021/11/10 05:22:35;;;;;;;1.10;1.00;;;;;;;;;;2047138;28;20036;-83
2021/11/10 05:23:53;;;;;;;1.13;0.50;;;;;;;;;;2056241;28;20109;-84
2021/11/10 05:25:12;;;;;;;1.02;0.60;;;;;;;;;;2048749;28;20081;-84
2021/11/10 05:26:31;;;;;;;0.60;0.60;;;;;;;;;;2047854;28;20027;-85
2021/11/10 05:27:50;;;;;;;0.93;0.50;;;;;;;;;;2047761;28;20507;-85
2021/11/10 05:29:09;;;;;;;2.22;0.60;;;;;;;;;;2045476;29;20032;-85
2021/11/10 05:30:28;;;;;;;0.95;0.70;;;;;;;;;;2044903;28;20035;-84
2021/11/10 05:31:48;;;;;;;1.33;0.60;;;;;;;;;;2044602;28;20027;-83
2021/11/10 05:33:06;;;;;;;0.70;0.70;;;;;;;;;;2055936;28;20035;-83
2021/11/10 05:34:25;;;;;;;1.27;0.50;;;;;;;;;;2045926;28;20034;-83
2021/11/10 05:35:44;;;;;;;3.60;0.55;;;;;;;;;;2052415;28;20682;-84
2021/11/10 05:37:04;;;;;;;0.55;0.55;;;;;;;;;;2045537;28;20152;-85
2021/11/10 05:38:23;;;;;;;0.45;0.45;;;;;;;;;;2045124;28;20031;-84
2021/11/10 05:39:42;;;;;;;0.40;0.40;;;;;;;;;;2044749;28;20027;-85
2021/11/10 05:41:00;;;;;;;0.70;0.40;;;;;;;;;;2048739;28;20028;-83
2021/11/10 05:42:20;;;;;;;1.33;0.70;;;;;;;;;;2045881;28;20387;-83
2021/11/10 05:43:38;;;;;;;0.93;0.30;;;;;;;;;;2053689;28;20039;-84
2021/11/10 05:44:57;;;;;;;0.50;0.40;;;;;;;;;;2044785;28;20031;-84
2021/11/10 05:46:16;;;;;;;0.60;0.32;;;;;;;;;;2049955;28;20039;-84
2021/11/10 05:47:35;;;;;;;0.40;0.40;;;;;;;;;;2045553;28;20043;-84
2021/11/10 05:48:54;;;;;;;0.50;0.40;;;;;;;;;;2050547;28;20039;-83
2021/11/10 05:50:13;;;;;;;0.30;0.30;;;;;;;;;;2048668;28;20047;-83
2021/11/10 05:51:32;;;;;;;0.30;0.30;;;;;;;;;;2048143;28;20511;-85
2021/11/10 05:52:51;;;;;;;0.75;0.30;;;;;;;;;;2045890;28;20047;-82
2021/11/10 05:54:10;;;;;;;2.90;0.38;;;;;;;;;;2044388;28;20027;-84
2021/11/10 05:55:29;;;;;;;0.60;0.60;;;;;;;;;;2045840;28;20494;-84
2021/11/10 05:56:49;;;;;;;0.50;0.40;;;;;;;;;;2046087;28;20035;-84
2021/11/10 05:58:09;;;;;;;0.55;0.43;;;;;;;;;;2048859;28;20121;-82
2021/11/10 05:59:28;;;;;;;1.15;0.30;;;;;;;;;;2045839;28;20051;-84
2021/11/10 06:00:47;;;;;;;0.30;0.30;;;;;;;;;;2045987;28;20035;-85
2021/11/10 06:02:06;;;;;;;0.73;0.30;;;;;;;;;;2051287;28;20527;-85
2021/11/10 06:03:26;;;;;;;1.65;0.30;;;;;;;;;;2044793;28;20020;-84
2021/11/10 06:04:47;;;;;;;0.60;0.30;;;;;;;;;;2043066;28;20075;-83
2021/11/10 06:06:05;;;;;;;0.50;0.40;;;;;;;;;;2052108;28;20024;-83
2021/11/10 06:07:24;;;;;;;1.95;0.30;;;;;;;;;;2042196;28;20479;-83
2021/11/10 06:08:43;;;;;;;0.30;0.30;;;;;;;;;;2052209;28;20043;-85
2021/11/10 06:10:05;;;;;;;0.20;0.20;;;;;;;;;;2047134;28;20027;-84
2021/11/10 06:11:24;;;;;;;0.40;0.30;;;;;;;;;;2052295;28;20027;-83
2021/11/10 06:12:43;;;;;;;0.52;0.40;;;;;;;;;;2043933;28;20118;-83
2021/11/10 06:14:02;;;;;;;0.47;0.47;;;;;;;;;;2044653;28;20511;-82
2021/11/10 06:15:22;;;;;;;0.40;0.40;;;;;;;;;;2044123;28;20075;-85
2021/11/10 06:16:41;;;;;;;1.85;0.40;;;;;;;;;;2047900;28;20031;-83
2021/11/10 06:18:00;;;;;;;0.82;0.45;;;;;;;;;;2041746;28;20035;-84
2021/11/10 06:19:20;;;;;;;0.55;0.35;;;;;;;;;;2044532;28;20035;-83
2021/11/10 06:20:38;;;;;;;1.55;0.30;;;;;;;;;;2039421;28;20032;-83
2021/11/10 06:21:57;;;;;;;0.30;0.30;;;;;;;;;;2039181;28;20127;-85
2021/11/10 06:23:16;;;;;;;1.10;0.55;;;;;;;;;;2051646;28;20035;-84
2021/11/10 06:24:35;;;;;;;0.75;0.32;;;;;;;;;;2051838;28;20035;-86
2021/11/10 06:25:54;;;;;;;0.30;0.30;;;;;;;;;;2047790;28;20118;-86
2021/11/10 06:27:13;;;;;;;0.40;0.25;;;;;;;;;;2046381;28;20020;-84
2021/11/10 06:28:31;;;;;;;0.30;0.30;;;;;;;;;;2041260;28;20118;-84
2021/11/10 06:30:00;;;;;;;0.65;0.30;;;;;;;;;;2046032;28;20031;-88
2021/11/10 06:33:25;;;;;;;0.50;0.32;;;;;;;;;;2042627;28;20503;-85
2021/11/10 06:34:49;;;;;;;0.30;0.30;;;;;;;;;;2046165;28;20051;-84
2021/11/10 06:36:08;;;;;;;0.30;0.30;;;;;;;;;;2042927;28;20118;-86
2021/11/10 06:37:27;;;;;;;0.30;0.30;;;;;;;;;;2044134;28;20051;-86
2021/11/10 06:38:46;;;;;;;0.80;0.20;;;;;;;;;;2048390;28;20035;-86
2021/11/10 06:40:08;;;;;;;0.85;0.20;;;;;;;;;;2044351;28;20023;-85
2021/11/10 06:41:30;;;;;;;0.57;0.30;;;;;;;;;;2050493;28;20027;-86
2021/11/10 06:42:52;;;;;;;0.30;0.30;;;;;;;;;;2041694;28;20035;-84
2021/11/10 06:44:11;;;;;;;0.73;0.22;;;;;;;;;;2044926;29;20039;-85
2021/11/10 06:45:45;;;;;;;;;;;;;;;;;;;;;
2021/11/10 06:47:05;;;;;;;0.98;0.40;;;;;;;;;;2044700;29;20059;-86
2021/11/10 06:48:25;;;;;;;0.30;0.30;;;;;;;;;;2052604;28;20029;-85
2021/11/10 06:49:48;;;;;;;0.40;0.30;;;;;;;;;;2047939;28;20027;-84
2021/11/10 06:51:15;;;;;;;0.75;0.52;;;;;;;;;;2047001;28;20020;-86
2021/11/10 06:52:35;;;;;;;0.30;0.30;;;;;;;;;;2049366;28;20706;-84
2021/11/10 06:53:54;;;;;;;0.75;0.22;;;;;;;;;;2051359;28;20018;-85
2021/11/10 06:55:13;;;;;;;0.77;0.20;;;;;;;;;;2047824;28;20110;-86
2021/11/10 06:56:31;;;;;;;0.30;0.30;;;;;;;;;;2043678;28;20027;-84
2021/11/10 06:57:50;;;;;;;1.13;0.43;;;;;;;;;;2045779;28;20078;-85
2021/11/10 06:59:09;;;;;;;1.17;0.30;;;;;;;;;;2044298;29;20043;-86
2021/11/10 07:00:29;;;;;;;1.35;0.20;;;;;;;;;;2043842;28;20028;-86
2021/11/10 07:01:48;;;;;;;0.65;0.45;;;;;;;;;;2047914;28;20035;-85
2021/11/10 07:03:07;;;;;;;0.43;0.20;;;;;;;;;;2047366;28;20114;-86
2021/11/10 07:04:26;;;;;;;0.20;0.20;;;;;;;;;;2044526;28;20042;-86
2021/11/10 07:05:44;;;;;;;0.20;0.20;;;;;;;;;;2048575;28;20039;-84
2021/11/10 07:07:03;;;;;;;0.30;0.25;;;;;;;;;;2049654;28;20023;-86
2021/11/10 07:08:23;;;;;;;0.70;0.35;;;;;;;;;;2050396;28;20032;-85
2021/11/10 07:09:41;;;;;;;0.10;0.10;;;;;;;;;;2047580;28;20050;-85
2021/11/10 07:11:00;;;;;;;0.45;0.28;;;;;;;;;;2048014;28;20411;-86
2021/11/10 07:12:19;;;;;;;0.15;0.10;;;;;;;;;;2046179;28;20048;-84
2021/11/10 07:13:38;;;;;;;0.22;0.13;;;;;;;;;;2048036;28;20039;-85
2021/11/10 07:14:57;;;;;;;0.30;0.20;;;;;;;;;;2049137;28;20110;-85
2021/11/10 07:16:16;;;;;;;0.20;0.20;;;;;;;;;;2045050;28;20504;-85
2021/11/10 07:17:35;;;;;;;0.20;0.20;;;;;;;;;;2052218;28;20035;-86
2021/11/10 07:18:54;;;;;;;0.30;0.10;;;;;;;;;;2047327;28;20039;-86
2021/11/10 07:20:13;;;;;;;0.55;0.22;;;;;;;;;;2046245;28;20027;-84
2021/11/10 07:21:33;;;;;;;0.35;0.30;;;;;;;;;;2061356;28;20021;-85
2021/11/10 07:22:58;;;;;;;0.10;0.10;;;;;;;;;;2046235;28;20038;-84
2021/11/10 07:24:17;;;;;;;0.10;0.10;;;;;;;;;;2043464;28;20036;-84
2021/11/10 07:25:36;;;;;;;1.05;0.20;;;;;;;;;;2046627;28;20039;-86
2021/11/10 07:26:59;;;;;;;0.30;0.22;;;;;;;;;;2052764;28;20023;-84
2021/11/10 07:28:18;;;;;;;2.35;0.20;;;;;;;;;;2055337;28;20060;-84
2021/11/10 07:29:37;;;;;;;0.35;0.20;;;;;;;;;;2046372;28;20089;-84
2021/11/10 07:30:56;;;;;;;0.20;0.20;;;;;;;;;;2046220;28;20035;-86
2021/11/10 07:32:15;;;;;;;1.15;0.30;;;;;;;;;;2047029;28;20032;-82
2021/11/10 07:33:35;;;;;;;0.30;0.10;;;;;;;;;;2071015;28;20147;-83
2021/11/10 07:34:54;;;;;;;0.10;0.10;;;;;;;;;;2046780;29;20019;-85
2021/11/10 07:36:12;;;;;;;0.20;0.20;;;;;;;;;;2046881;28;20040;-83
2021/11/10 07:37:32;;;;;;;0.85;0.30;;;;;;;;;;2046318;28;20503;-84
2021/11/10 07:39:06;;;;;;;1.35;0.25;;;;;;;;;;2042899;28;20047;-82
2021/11/10 07:40:25;;;;;;;0.30;0.10;;;;;;;;;;2048252;28;20083;-83
2021/11/10 07:41:51;;;;;;;0.20;0.20;;;;;;;;;;2045092;29;20023;-85
2021/11/10 07:43:10;;;;;;;0.20;0.20;;;;;;;;;;2043582;28;20027;-83
2021/11/10 07:44:29;;;;;;;0.20;0.10;;;;;;;;;;2048517;28;20027;-84
2021/11/10 07:45:51;;;;;;;0.10;0.10;;;;;;;;;;2048700;28;20448;-86
2021/11/10 07:47:16;;;;;;;0.30;0.22;;;;;;;;;;2047447;28;20031;-84
2021/11/10 07:48:35;;;;;;;0.30;0.30;;;;;;;;;;2044214;28;20039;-83
2021/11/10 07:49:54;;;;;;;0.47;0.15;;;;;;;;;;2055204;28;20540;-84
2021/11/10 07:51:17;;;;;;;0.30;0.20;;;;;;;;;;2052826;28;20050;-83
2021/11/10 07:52:36;;;;;;;;;;;;;;;;;;2048006;28;20604;-81
2021/11/10 07:53:55;;;;;;;1.45;0.10;;;;;;;;;;2044939;28;19910;-82
2021/11/10 07:55:14;;;;;;;0.30;0.15;;;;;;;;;;2042355;28;20027;-83
2021/11/10 07:56:34;;;;;;;0.10;0.10;;;;;;;;;;2043036;28;20114;-82
2021/11/10 07:57:53;;;;;;;0.10;0.10;;;;;;;;;;2045229;29;20032;-83
2021/11/10 07:59:18;;;;;;;0.52;0.20;;;;;;;;;;2051043;28;20036;-83